MiSS Sarah — WDE9595 — position and weather

sailwx.info

Track history (hours):
 
Tides and Currents Weather Stations Pressure Air Temp Water Temp Dewpoint Dewpoint Depression Visibility Wind Speed Wind Dir Waves Ship Positions

MiSS Sarah

Owner: Higman Barge Lines, Inc, Orange, TX. More information available from US FCC via Universal Licensing System and Coast Guard Vessel Documentation Center.

Last reported at 2018-Feb-20 13:29 UTC. Time now 2018-Feb-20 13:35 UTC.
Position N 29°47' W 095°04'.

Length 24 m; draft 3.3 m.

Type: Towing. MMSI: 367419040.

Date/timePositionNaut miles runAvg speedWind from/ knotsBaromVisibWave heightAir tempDewpointWater temp
2018-Feb-20 13:29N 29°47' W 095°04'0 0.0
2018-Feb-20 09:45N 29°47' W 095°04'0 0.0
2018-Feb-20 08:21N 29°47' W 095°04'0 0.0
2018-Feb-20 07:52N 29°47' W 095°04'0 0.0
2018-Feb-20 07:23N 29°47' W 095°04'0 0.0
2018-Feb-20 03:53N 29°47' W 095°04'3 7.2
2018-Feb-20 03:29N 29°45' W 095°06'0 0.4
2018-Feb-20 02:59N 29°45' W 095°06'0 0.0
2018-Feb-20 02:30N 29°45' W 095°06'0 0.0
2018-Feb-20 02:00N 29°45' W 095°07'0 0.0
2018-Feb-20 01:25N 29°45' W 095°06'0 0.0
2018-Feb-20 01:00N 29°45' W 095°06'0 0.0
2018-Feb-20 00:27N 29°45' W 095°06'0 0.0
2018-Feb-19 23:54N 29°45' W 095°07'0 0.0
2018-Feb-19 23:29N 29°45' W 095°07'1 2.1
2018-Feb-19 22:57N 29°45' W 095°06'1 2.3
2018-Feb-19 22:21N 29°47' W 095°05'2 5.9
2018-Feb-19 21:58N 29°45' W 095°06'2 2.8
2018-Feb-19 21:24N 29°44' W 095°08'1 3.3
2018-Feb-19 21:00N 29°45' W 095°07'0 0.0
2018-Feb-19 20:22N 29°45' W 095°07'0 0.0
2018-Feb-19 19:59N 29°45' W 095°07'3 1.7
2018-Feb-19 18:12N 29°47' W 095°04'0 0.5
2018-Feb-19 17:38N 29°47' W 095°05'1 2.3
2018-Feb-19 17:25N 29°46' W 095°05'1 2.3
2018-Feb-19 17:00N 29°45' W 095°04'3 5.0
2018-Feb-19 16:27N 29°44' W 095°02'3 6.0
2018-Feb-19 16:00N 29°42' W 094°60'3 6.8
2018-Feb-19 15:30N 29°39' W 094°58'3 6.1
2018-Feb-19 15:00N 29°36' W 094°57'3 6.4
2018-Feb-19 14:30N 29°33' W 094°55'3 6.7
2018-Feb-19 14:00N 29°30' W 094°52'4 7.8
2018-Feb-19 13:30N 29°27' W 094°50'4 8.8
2018-Feb-19 13:00N 29°23' W 094°48'2 4.8
2018-Feb-19 12:31N 29°23' W 094°46'2 4.1
2018-Feb-19 11:55N 29°25' W 094°44'0 0.1
2018-Feb-19 11:30N 29°25' W 094°44'0 0.0
2018-Feb-19 10:58N 29°25' W 094°44'0 0.0
2018-Feb-19 10:25N 29°25' W 094°44'0 0.0
2018-Feb-19 09:58N 29°25' W 094°44'0 0.0
2018-Feb-19 09:30N 29°25' W 094°44'0 0.0
2018-Feb-19 09:00N 29°25' W 094°44'0 0.0
2018-Feb-19 08:30N 29°25' W 094°44'0 0.0
2018-Feb-19 08:00N 29°25' W 094°44'0 0.0
2018-Feb-19 07:30N 29°25' W 094°44'0 0.0
2018-Feb-19 06:59N 29°25' W 094°44'0 0.0
2018-Feb-19 06:30N 29°25' W 094°44'0 0.0
2018-Feb-19 06:00N 29°25' W 094°44'0 0.0
2018-Feb-19 05:30N 29°25' W 094°44'0 0.0
2018-Feb-19 05:00N 29°25' W 094°44'0 0.0
2018-Feb-19 04:30N 29°25' W 094°44'0 0.0
2018-Feb-19 03:39N 29°25' W 094°44'0 0.0
2018-Feb-19 03:15N 29°25' W 094°44'0 0.0
2018-Feb-18 19:41N 29°25' W 094°44'0 0.0
2018-Feb-18 19:07N 29°25' W 094°44'0 0.0
2018-Feb-18 18:43N 29°25' W 094°44'0 0.0
2018-Feb-18 18:30N 29°25' W 094°44'0 0.0
2018-Feb-18 17:55N 29°25' W 094°44'0 0.0
2018-Feb-18 16:55N 29°25' W 094°44'0 0.0
2018-Feb-18 16:30N 29°25' W 094°44'0 0.0
2018-Feb-18 16:00N 29°25' W 094°44'0 0.0
2018-Feb-18 15:30N 29°25' W 094°44'0 0.0
2018-Feb-18 14:57N 29°25' W 094°44'0 0.0
2018-Feb-18 14:30N 29°25' W 094°44'0 0.0
2018-Feb-18 13:59N 29°25' W 094°44'0 0.0
2018-Feb-18 07:48N 29°25' W 094°44'0 0.0
2018-Feb-18 07:00N 29°25' W 094°44'0 0.0
2018-Feb-18 01:31N 29°25' W 094°44'0 0.0
2018-Feb-18 01:30N 29°25' W 094°44'0 0.0
2018-Feb-18 00:01N 29°25' W 094°44'0 0.4
2018-Feb-17 23:53N 29°25' W 094°44'0 0.6
2018-Feb-17 23:30N 29°25' W 094°44'2 3.4
2018-Feb-17 23:00N 29°26' W 094°42'2 2.9
2018-Feb-17 22:16N 29°28' W 094°40'0 0.0
2018-Feb-17 21:40N 29°28' W 094°40'0 0.0
2018-Feb-17 21:27N 29°28' W 094°40'1 2.2
2018-Feb-17 21:00N 29°28' W 094°39'9 3.2
2018-Feb-17 18:15N 29°31' W 094°30'2 4.0
2018-Feb-17 17:52N 29°32' W 094°29'0 0.4
2018-Feb-17 17:30N 29°33' W 094°28'0 0.0
2018-Feb-17 16:55N 29°33' W 094°28'0 0.0
2018-Feb-17 16:29N 29°33' W 094°28'0 0.1
2018-Feb-17 15:52N 29°33' W 094°28'0 0.1
2018-Feb-17 15:27N 29°33' W 094°28'0 0.1
2018-Feb-17 14:59N 29°33' W 094°28'0 0.0
2018-Feb-17 14:26N 29°33' W 094°28'0 0.0
2018-Feb-17 14:00N 29°33' W 094°28'0 0.0
2018-Feb-17 13:23N 29°33' W 094°28'0 0.0
2018-Feb-17 13:00N 29°33' W 094°28'0 0.0
2018-Feb-17 12:27N 29°33' W 094°28'0 0.0
2018-Feb-17 11:58N 29°33' W 094°28'0 0.0
2018-Feb-17 11:30N 29°33' W 094°28'0 0.0
2018-Feb-17 10:59N 29°33' W 094°28'0 0.0
2018-Feb-17 10:20N 29°33' W 094°28'0 0.0
2018-Feb-17 10:01N 29°33' W 094°28'0 0.0
2018-Feb-17 09:30N 29°33' W 094°28'0 0.0
2018-Feb-17 09:00N 29°33' W 094°28'0 0.0
2018-Feb-17 08:30N 29°33' W 094°28'0 0.0
2018-Feb-17 08:00N 29°33' W 094°28'0 0.0
2018-Feb-17 07:29N 29°33' W 094°28'0 0.0
2018-Feb-17 07:00N 29°33' W 094°28'0 0.0
2018-Feb-17 06:31N 29°33' W 094°28'0 0.0
2018-Feb-17 05:59N 29°33' W 094°28'0 0.0
2018-Feb-17 05:29N 29°33' W 094°28'0 0.0
2018-Feb-17 04:59N 29°33' W 094°28'0 0.0
2018-Feb-17 04:26N 29°33' W 094°28'0 0.0
2018-Feb-17 04:00N 29°33' W 094°28'0 0.0
2018-Feb-17 03:27N 29°33' W 094°28'0 0.0
2018-Feb-17 02:58N 29°33' W 094°28'0 0.0
2018-Feb-17 02:30N 29°33' W 094°28'0 0.0
2018-Feb-17 01:59N 29°33' W 094°28'0 0.0
2018-Feb-17 01:30N 29°33' W 094°28'0 0.0
2018-Feb-17 00:59N 29°33' W 094°28'0 0.0
2018-Feb-17 00:30N 29°33' W 094°28'0 0.1
2018-Feb-17 00:00N 29°33' W 094°28'0 0.7
2018-Feb-16 23:30N 29°33' W 094°28'2 4.1
2018-Feb-16 23:00N 29°34' W 094°26'0 0.6
2018-Feb-16 22:30N 29°34' W 094°26'0 0.4
2018-Feb-16 22:00N 29°34' W 094°25'0 0.9
2018-Feb-16 21:30N 29°34' W 094°25'2 3.6
2018-Feb-16 21:00N 29°36' W 094°24'2 4.8
2018-Feb-16 20:30N 29°37' W 094°21'3 5.3
2018-Feb-16 19:59N 29°38' W 094°18'3 5.5
2018-Feb-16 19:29N 29°39' W 094°16'3 5.5
2018-Feb-16 19:00N 29°40' W 094°13'3 5.3
2018-Feb-16 18:30N 29°41' W 094°10'3 5.2
2018-Feb-16 18:00N 29°43' W 094°08'3 5.4
2018-Feb-16 17:30N 29°44' W 094°05'3 5.3
2018-Feb-16 17:00N 29°46' W 094°03'3 5.1
2018-Feb-16 16:30N 29°48' W 094°01'2 4.5
2018-Feb-16 16:00N 29°49' W 093°59'0 0.4
2018-Feb-16 15:30N 29°49' W 093°58'0 0.0
2018-Feb-16 15:00N 29°49' W 093°58'0 0.3
2018-Feb-16 14:30N 29°49' W 093°59'1 1.7
2018-Feb-16 14:01N 29°50' W 093°58'0 0.9
2018-Feb-16 13:30N 29°50' W 093°57'0 0.0
2018-Feb-16 13:00N 29°50' W 093°57'0 0.0
2018-Feb-16 12:31N 29°50' W 093°57'0 0.0
2018-Feb-16 12:00N 29°50' W 093°57'0 0.0
2018-Feb-16 11:30N 29°50' W 093°57'0 0.0
2018-Feb-16 11:00N 29°50' W 093°57'0 0.0
2018-Feb-16 10:31N 29°50' W 093°57'0 0.0
2018-Feb-16 10:00N 29°50' W 093°57'0 0.0
2018-Feb-16 09:30N 29°50' W 093°57'0 0.0
2018-Feb-16 09:00N 29°50' W 093°57'0 0.0
2018-Feb-16 08:30N 29°50' W 093°57'0 0.0
2018-Feb-16 08:00N 29°50' W 093°57'0 0.0
2018-Feb-16 07:31N 29°50' W 093°57'0 0.0
2018-Feb-16 07:00N 29°50' W 093°57'0 0.0
2018-Feb-16 06:30N 29°50' W 093°57'0 0.0
2018-Feb-16 06:01N 29°50' W 093°57'0 0.0
2018-Feb-16 05:30N 29°50' W 093°57'0 0.0
2018-Feb-16 05:00N 29°50' W 093°57'0 0.0
2018-Feb-16 04:30N 29°50' W 093°57'0 0.0
2018-Feb-16 04:00N 29°50' W 093°57'0 0.0
2018-Feb-16 03:30N 29°50' W 093°57'0 0.0
2018-Feb-16 03:00N 29°50' W 093°57'0 0.0
2018-Feb-16 02:30N 29°50' W 093°57'0 0.0
2018-Feb-16 02:00N 29°50' W 093°57'0 0.0
2018-Feb-16 01:30N 29°50' W 093°57'0 0.0
2018-Feb-16 01:00N 29°50' W 093°57'0 0.0
2018-Feb-16 00:30N 29°50' W 093°57'0 0.0
2018-Feb-16 00:00N 29°50' W 093°57'0 0.0
2018-Feb-15 23:30N 29°50' W 093°57'0 0.0
2018-Feb-15 23:00N 29°50' W 093°57'0 0.0
2018-Feb-15 22:30N 29°50' W 093°57'0 0.0
2018-Feb-15 22:00N 29°50' W 093°57'0 0.0
2018-Feb-15 21:30N 29°50' W 093°57'0 0.0
2018-Feb-15 21:00N 29°50' W 093°57'0 0.0
2018-Feb-15 20:30N 29°50' W 093°57'0 0.0
2018-Feb-15 20:01N 29°50' W 093°57'0 0.0
2018-Feb-15 19:30N 29°50' W 093°57'0 0.0
2018-Feb-15 19:00N 29°50' W 093°57'0 0.0
2018-Feb-15 18:30N 29°50' W 093°57'0 0.0
2018-Feb-15 18:00N 29°50' W 093°57'0 0.0
2018-Feb-15 17:30N 29°50' W 093°57'0 0.1
2018-Feb-15 17:00N 29°50' W 093°57'2 3.7
2018-Feb-15 16:31N 29°49' W 093°59'1 1.2
2018-Feb-15 16:00N 29°50' W 093°59'0 0.1
2018-Feb-15 15:30N 29°49' W 093°59'0 0.0
2018-Feb-15 15:00N 29°49' W 093°59'0 0.0
2018-Feb-15 14:30N 29°49' W 093°59'0 0.0
2018-Feb-15 14:00N 29°49' W 093°59'0 0.0
2018-Feb-15 13:30N 29°49' W 093°59'0 0.0
2018-Feb-15 13:00N 29°49' W 093°59'0 0.0
2018-Feb-15 12:30N 29°49' W 093°59'0 0.0
2018-Feb-15 12:00N 29°49' W 093°59'0 0.0
2018-Feb-15 11:30N 29°49' W 093°59'0 0.0
2018-Feb-15 11:00N 29°49' W 093°59'0 0.0
2018-Feb-15 10:30N 29°49' W 093°59'0 0.0
2018-Feb-15 10:00N 29°49' W 093°59'0 0.0
2018-Feb-15 09:30N 29°49' W 093°59'0 0.0
2018-Feb-15 09:00N 29°49' W 093°59'0 0.0
2018-Feb-15 08:30N 29°49' W 093°59'0 0.0
2018-Feb-15 08:00N 29°49' W 093°59'0 0.0
2018-Feb-15 07:30N 29°49' W 093°59'0 0.0
2018-Feb-15 07:00N 29°49' W 093°59'0 0.0
2018-Feb-15 06:31N 29°49' W 093°59'0 0.0
2018-Feb-15 06:00N 29°49' W 093°59'0 0.0
2018-Feb-15 05:31N 29°49' W 093°59'0 0.0
2018-Feb-15 05:00N 29°49' W 093°59'0 0.0
2018-Feb-15 04:30N 29°49' W 093°59'0 0.0
2018-Feb-15 04:00N 29°49' W 093°59'0 0.0
2018-Feb-15 03:30N 29°49' W 093°59'0 0.0
2018-Feb-15 03:01N 29°49' W 093°59'0 0.0
2018-Feb-15 02:30N 29°49' W 093°59'0 0.0
2018-Feb-15 02:00N 29°49' W 093°59'0 0.0
2018-Feb-15 01:30N 29°49' W 093°59'0 0.0
2018-Feb-15 01:00N 29°49' W 093°59'0 0.0
2018-Feb-15 00:30N 29°49' W 093°59'0 0.0
2018-Feb-15 00:00N 29°49' W 093°59'0 0.0
2018-Feb-14 23:30N 29°49' W 093°59'0 0.0
2018-Feb-14 23:01N 29°49' W 093°59'0 0.0
2018-Feb-14 22:30N 29°49' W 093°59'0 0.0
2018-Feb-14 22:00N 29°49' W 093°59'0 0.0
2018-Feb-14 21:30N 29°49' W 093°59'0 0.0
2018-Feb-14 21:01N 29°49' W 093°59'0 0.0
2018-Feb-14 20:31N 29°49' W 093°59'0 0.0
2018-Feb-14 20:00N 29°49' W 093°59'0 0.0
2018-Feb-14 19:30N 29°49' W 093°59'0 0.0
2018-Feb-14 19:00N 29°49' W 093°59'0 0.0
2018-Feb-14 18:30N 29°49' W 093°59'0 0.0
2018-Feb-14 18:00N 29°49' W 093°59'0 0.0
2018-Feb-14 17:30N 29°49' W 093°59'0 0.0
2018-Feb-14 17:00N 29°49' W 093°59'0 0.0
2018-Feb-14 16:30N 29°49' W 093°59'0 0.0
2018-Feb-14 16:00N 29°49' W 093°59'0 0.0
2018-Feb-14 15:30N 29°49' W 093°59'0 0.0
2018-Feb-14 15:00N 29°49' W 093°59'0 0.0
2018-Feb-14 14:30N 29°49' W 093°59'0 0.0
2018-Feb-14 14:00N 29°49' W 093°59'0 0.0
2018-Feb-14 13:30N 29°49' W 093°59'0 0.0
2018-Feb-14 13:00N 29°49' W 093°59'0 0.0
2018-Feb-14 12:31N 29°49' W 093°59'0 0.0
2018-Feb-14 12:00N 29°49' W 093°59'0 0.0
2018-Feb-14 11:30N 29°49' W 093°59'0 0.0
2018-Feb-14 11:01N 29°49' W 093°59'0 0.0
2018-Feb-14 10:30N 29°49' W 093°59'0 0.0
2018-Feb-14 10:00N 29°49' W 093°59'0 0.0
2018-Feb-14 09:30N 29°49' W 093°59'0 0.0
2018-Feb-14 09:00N 29°49' W 093°59'0 0.0
2018-Feb-14 08:31N 29°49' W 093°59'0 0.0
2018-Feb-14 08:00N 29°49' W 093°59'0 0.0
2018-Feb-14 07:30N 29°49' W 093°59'0 0.0
2018-Feb-14 07:00N 29°49' W 093°59'0 0.0
2018-Feb-14 06:30N 29°49' W 093°59'0 0.0
2018-Feb-14 06:00N 29°49' W 093°59'0 0.0
2018-Feb-14 05:30N 29°49' W 093°59'0 0.0
2018-Feb-14 05:00N 29°49' W 093°59'0 0.0
2018-Feb-14 04:30N 29°49' W 093°59'0 0.0
2018-Feb-14 04:00N 29°49' W 093°59'0 0.0
2018-Feb-14 03:30N 29°49' W 093°59'0 0.0
2018-Feb-14 03:00N 29°49' W 093°59'0 0.0
2018-Feb-14 02:30N 29°49' W 093°59'0 0.0
2018-Feb-14 02:00N 29°49' W 093°59'0 0.0
2018-Feb-14 01:30N 29°49' W 093°59'0 0.0
2018-Feb-14 01:00N 29°49' W 093°59'0 0.0
2018-Feb-14 00:30N 29°49' W 093°59'0 0.0
2018-Feb-14 00:00N 29°49' W 093°59'0 0.0
2018-Feb-13 23:30N 29°49' W 093°59'0 0.0
2018-Feb-13 23:00N 29°49' W 093°59'0 0.0
2018-Feb-13 22:30N 29°49' W 093°59'0 0.0
2018-Feb-13 22:01N 29°49' W 093°59'0 0.0
2018-Feb-13 21:30N 29°49' W 093°59'0 0.0
2018-Feb-13 21:00N 29°49' W 093°59'0 0.0
2018-Feb-13 20:31N 29°49' W 093°59'0 0.0
2018-Feb-13 20:00N 29°49' W 093°59'0 0.0
2018-Feb-13 19:30N 29°49' W 093°59'0 0.0
2018-Feb-13 19:00N 29°49' W 093°59'0 0.0
2018-Feb-13 18:30N 29°49' W 093°59'0 0.0
2018-Feb-13 18:00N 29°49' W 093°59'0 0.0
2018-Feb-13 17:26N 29°49' W 093°59'0 0.0
2018-Feb-13 17:01N 29°49' W 093°59'0 0.0
2018-Feb-13 16:30N 29°49' W 093°59'0 0.0
2018-Feb-13 15:59N 29°49' W 093°59'0 0.0
2018-Feb-13 15:30N 29°49' W 093°59'1 2.1
2018-Feb-13 15:00N 29°49' W 093°58'1 1.4
2018-Feb-13 14:30N 29°50' W 093°58'0 0.5
2018-Feb-13 14:00N 29°50' W 093°58'2 3.0
2018-Feb-13 13:30N 29°49' W 093°59'0 0.0
2018-Feb-13 13:01N 29°49' W 093°59'0 0.0
2018-Feb-13 12:30N 29°49' W 093°59'0 0.0
2018-Feb-13 12:00N 29°49' W 093°59'0 0.0
2018-Feb-13 11:29N 29°49' W 093°59'0 0.0
2018-Feb-13 11:00N 29°49' W 093°59'0 0.0
2018-Feb-13 10:30N 29°49' W 093°59'0 0.0
2018-Feb-13 10:00N 29°49' W 093°59'0 0.0
2018-Feb-13 09:30N 29°49' W 093°59'0 0.0
2018-Feb-13 09:00N 29°49' W 093°59'0 0.0
2018-Feb-13 08:30N 29°49' W 093°59'0 0.0
2018-Feb-13 08:00N 29°49' W 093°59'0 0.0
2018-Feb-13 07:30N 29°49' W 093°59'0 0.0
2018-Feb-13 07:00N 29°49' W 093°59'0 0.0
2018-Feb-13 06:30N 29°49' W 093°59'0 0.0
2018-Feb-13 06:00N 29°49' W 093°59'0 0.0
2018-Feb-13 05:30N 29°49' W 093°59'0 0.0
2018-Feb-13 05:01N 29°49' W 093°59'0 0.0
2018-Feb-13 04:30N 29°49' W 093°59'0 0.0
2018-Feb-13 04:00N 29°49' W 093°59'0 0.0
2018-Feb-13 03:30N 29°49' W 093°59'0 0.0
2018-Feb-13 03:00N 29°49' W 093°59'0 0.0
2018-Feb-13 02:30N 29°49' W 093°59'0 0.0
2018-Feb-13 02:01N 29°49' W 093°59'0 0.0
2018-Feb-13 01:30N 29°49' W 093°59'0 0.0
2018-Feb-13 00:59N 29°49' W 093°59'0 0.0
2018-Feb-13 00:29N 29°49' W 093°59'0 0.0
2018-Feb-13 00:00N 29°49' W 093°59'0 0.0
2018-Feb-12 23:30N 29°49' W 093°59'1 3.0
2018-Feb-12 23:00N 29°50' W 093°58'0 0.0
2018-Feb-12 22:30N 29°50' W 093°58'0 0.0
2018-Feb-12 22:00N 29°50' W 093°58'0 0.0
2018-Feb-12 21:30N 29°50' W 093°58'0 0.0
2018-Feb-12 21:00N 29°50' W 093°58'2 3.0
2018-Feb-12 20:30N 29°49' W 093°59'0 0.3
2018-Feb-12 20:00N 29°49' W 093°59'0 0.0
2018-Feb-12 19:30N 29°49' W 093°59'0 0.0
2018-Feb-12 19:01N 29°49' W 093°59'0 0.0
2018-Feb-12 18:30N 29°49' W 093°59'0 0.0
2018-Feb-12 18:00N 29°49' W 093°59'0 0.0
2018-Feb-12 17:30N 29°49' W 093°59'0 0.0
2018-Feb-12 17:01N 29°49' W 093°59'0 0.0
2018-Feb-12 16:30N 29°49' W 093°59'0 0.0
2018-Feb-12 16:01N 29°49' W 093°59'0 0.0
2018-Feb-12 15:30N 29°49' W 093°59'0 0.0
2018-Feb-12 14:59N 29°49' W 093°59'0 0.0
2018-Feb-12 14:30N 29°49' W 093°59'0 0.0
2018-Feb-12 14:01N 29°49' W 093°59'0 0.0
2018-Feb-12 13:30N 29°49' W 093°59'0 0.0
2018-Feb-12 13:00N 29°49' W 093°59'0 0.0
2018-Feb-12 12:30N 29°49' W 093°59'0 0.0
2018-Feb-12 12:00N 29°49' W 093°59'0 0.0
2018-Feb-12 11:30N 29°49' W 093°59'0 0.0
2018-Feb-12 11:00N 29°49' W 093°59'0 0.0
2018-Feb-12 10:30N 29°49' W 093°59'0 0.0
2018-Feb-12 10:00N 29°49' W 093°59'0 0.0
2018-Feb-12 09:30N 29°49' W 093°59'0 0.0
2018-Feb-12 09:00N 29°49' W 093°59'0 0.0
2018-Feb-12 08:30N 29°49' W 093°59'0 0.0
2018-Feb-12 07:59N 29°49' W 093°59'0 0.0
2018-Feb-12 07:30N 29°49' W 093°59'0 0.0
2018-Feb-12 07:00N 29°49' W 093°59'0 0.0
2018-Feb-12 06:31N 29°49' W 093°59'0 0.0
2018-Feb-12 06:00N 29°49' W 093°59'0 0.0
2018-Feb-12 05:30N 29°49' W 093°59'0 0.0
2018-Feb-12 04:59N 29°49' W 093°59'0 0.0
2018-Feb-12 04:30N 29°49' W 093°59'0 0.0
2018-Feb-12 04:00N 29°49' W 093°59'0 0.0
2018-Feb-12 03:30N 29°49' W 093°59'0 0.0
2018-Feb-12 03:00N 29°49' W 093°59'0 0.0
2018-Feb-12 02:30N 29°49' W 093°59'0 0.0
2018-Feb-12 02:00N 29°49' W 093°59'0 0.0
2018-Feb-12 01:30N 29°49' W 093°59'0 0.0
2018-Feb-12 01:00N 29°49' W 093°59'0 0.0
2018-Feb-12 00:30N 29°49' W 093°59'0 0.0
2018-Feb-12 00:00N 29°49' W 093°59'0 0.0
2018-Feb-11 23:30N 29°49' W 093°59'0 0.0
2018-Feb-11 23:00N 29°49' W 093°59'0 0.0
2018-Feb-11 22:30N 29°49' W 093°59'0 0.0
2018-Feb-11 22:01N 29°49' W 093°59'0 0.0
2018-Feb-11 21:30N 29°49' W 093°59'0 0.0
2018-Feb-11 21:00N 29°49' W 093°59'0 0.0
2018-Feb-11 20:26N 29°49' W 093°59'0 0.0
2018-Feb-11 20:00N 29°49' W 093°59'0 0.0
2018-Feb-11 19:29N 29°49' W 093°59'0 0.0
2018-Feb-11 19:00N 29°49' W 093°59'0 0.0
2018-Feb-11 18:30N 29°49' W 093°59'0 0.0
2018-Feb-11 18:01N 29°49' W 093°59'0 0.0
2018-Feb-11 17:31N 29°49' W 093°59'0 0.0
2018-Feb-11 17:00N 29°49' W 093°59'0 0.0
2018-Feb-11 16:31N 29°49' W 093°59'0 0.0
2018-Feb-11 16:00N 29°49' W 093°59'0 0.0
2018-Feb-11 15:31N 29°49' W 093°59'0 0.0
2018-Feb-11 15:00N 29°49' W 093°59'0 0.0
2018-Feb-11 14:31N 29°49' W 093°59'0 0.0
2018-Feb-11 14:01N 29°49' W 093°59'0 0.0
2018-Feb-11 13:30N 29°49' W 093°59'0 0.0
2018-Feb-11 13:00N 29°49' W 093°59'0 0.0
2018-Feb-11 12:30N 29°49' W 093°59'0 0.0
2018-Feb-11 12:00N 29°49' W 093°59'0 0.0
2018-Feb-11 11:30N 29°49' W 093°59'0 0.0
2018-Feb-11 11:00N 29°49' W 093°59'0 0.0
2018-Feb-11 10:31N 29°49' W 093°59'0 0.0
2018-Feb-11 10:00N 29°49' W 093°59'0 0.0
2018-Feb-11 09:30N 29°49' W 093°59'0 0.0
2018-Feb-11 09:00N 29°49' W 093°59'0 0.0
2018-Feb-11 08:30N 29°49' W 093°59'0 0.0
2018-Feb-11 08:00N 29°49' W 093°59'0 0.0
2018-Feb-11 07:30N 29°49' W 093°59'0 0.0
2018-Feb-11 07:00N 29°49' W 093°59'0 0.0
2018-Feb-11 06:30N 29°49' W 093°59'0 0.0
2018-Feb-11 06:00N 29°49' W 093°59'0 0.0
2018-Feb-11 05:29N 29°49' W 093°59'0 0.0
2018-Feb-11 04:59N 29°49' W 093°59'0 0.0
2018-Feb-11 04:30N 29°49' W 093°59'0 0.0
2018-Feb-11 04:00N 29°49' W 093°59'0 0.0
2018-Feb-11 03:30N 29°49' W 093°59'0 0.0
2018-Feb-11 03:00N 29°49' W 093°59'0 0.0
2018-Feb-11 02:31N 29°49' W 093°59'0 0.0
2018-Feb-11 02:00N 29°49' W 093°59'0 0.0
2018-Feb-11 01:30N 29°49' W 093°59'0 0.0
2018-Feb-11 01:00N 29°49' W 093°59'0 0.0
2018-Feb-11 00:31N 29°49' W 093°59'0 0.0
2018-Feb-11 00:00N 29°49' W 093°59'0 0.0
2018-Feb-10 23:30N 29°49' W 093°59'0 0.0
2018-Feb-10 23:00N 29°49' W 093°59'0 0.3
2018-Feb-10 22:31N 29°49' W 093°59'2 4.6
2018-Feb-10 22:01N 29°47' W 094°01'3 6.1
2018-Feb-10 21:30N 29°45' W 094°04'3 6.2
2018-Feb-10 21:00N 29°44' W 094°06'3 6.2
2018-Feb-10 20:30N 29°42' W 094°09'3 5.0
2018-Feb-10 20:01N 29°41' W 094°12'2 3.1
2018-Feb-10 19:30N 29°40' W 094°14'3 5.9
2018-Feb-10 19:01N 29°39' W 094°17'3 5.7
2018-Feb-10 18:29N 29°37' W 094°20'3 5.7
2018-Feb-10 17:52N 29°36' W 094°23'2 4.5
2018-Feb-10 17:30N 29°35' W 094°25'2 4.5
2018-Feb-10 16:58N 29°34' W 094°27'6 2.1
2018-Feb-10 14:13N 29°30' W 094°32'0 0.0
2018-Feb-10 13:54N 29°30' W 094°32'  
Track history (hours):
 
Tides and Currents Weather Stations Pressure Air Temp Water Temp Dewpoint Dewpoint Depression Visibility Wind Speed Wind Dir Waves Ship Positions

MiSS Sarah

Owner: Higman Barge Lines, Inc, Orange, TX. More information available from US FCC via Universal Licensing System and Coast Guard Vessel Documentation Center.

Last reported at 2018-Feb-20 13:29 UTC. Time now 2018-Feb-20 13:35 UTC.
Position N 29°47' W 095°04'.

Length 24 m; draft 3.3 m.

Type: Towing. MMSI: 367419040.

Date/timePositionNaut miles runAvg speedWind from/ knotsBaromVisibWave heightAir tempDewpointWater temp
2018-Feb-20 13:29N 29°47' W 095°04'0 0.0
2018-Feb-20 09:45N 29°47' W 095°04'0 0.0
2018-Feb-20 08:21N 29°47' W 095°04'0 0.0
2018-Feb-20 07:52N 29°47' W 095°04'0 0.0
2018-Feb-20 07:23N 29°47' W 095°04'0 0.0
2018-Feb-20 03:53N 29°47' W 095°04'3 7.2
2018-Feb-20 03:29N 29°45' W 095°06'0 0.4
2018-Feb-20 02:59N 29°45' W 095°06'0 0.0
2018-Feb-20 02:30N 29°45' W 095°06'0 0.0
2018-Feb-20 02:00N 29°45' W 095°07'0 0.0
2018-Feb-20 01:25N 29°45' W 095°06'0 0.0
2018-Feb-20 01:00N 29°45' W 095°06'0 0.0
2018-Feb-20 00:27N 29°45' W 095°06'0 0.0
2018-Feb-19 23:54N 29°45' W 095°07'0 0.0
2018-Feb-19 23:29N 29°45' W 095°07'1 2.1
2018-Feb-19 22:57N 29°45' W 095°06'1 2.3
2018-Feb-19 22:21N 29°47' W 095°05'2 5.9
2018-Feb-19 21:58N 29°45' W 095°06'2 2.8
2018-Feb-19 21:24N 29°44' W 095°08'1 3.3
2018-Feb-19 21:00N 29°45' W 095°07'0 0.0
2018-Feb-19 20:22N 29°45' W 095°07'0 0.0
2018-Feb-19 19:59N 29°45' W 095°07'3 1.7
2018-Feb-19 18:12N 29°47' W 095°04'0 0.5
2018-Feb-19 17:38N 29°47' W 095°05'1 2.3
2018-Feb-19 17:25N 29°46' W 095°05'1 2.3
2018-Feb-19 17:00N 29°45' W 095°04'3 5.0
2018-Feb-19 16:27N 29°44' W 095°02'3 6.0
2018-Feb-19 16:00N 29°42' W 094°60'3 6.8
2018-Feb-19 15:30N 29°39' W 094°58'3 6.1
2018-Feb-19 15:00N 29°36' W 094°57'3 6.4
2018-Feb-19 14:30N 29°33' W 094°55'3 6.7
2018-Feb-19 14:00N 29°30' W 094°52'4 7.8
2018-Feb-19 13:30N 29°27' W 094°50'4 8.8
2018-Feb-19 13:00N 29°23' W 094°48'2 4.8
2018-Feb-19 12:31N 29°23' W 094°46'2 4.1
2018-Feb-19 11:55N 29°25' W 094°44'0 0.1
2018-Feb-19 11:30N 29°25' W 094°44'0 0.0
2018-Feb-19 10:58N 29°25' W 094°44'0 0.0
2018-Feb-19 10:25N 29°25' W 094°44'0 0.0
2018-Feb-19 09:58N 29°25' W 094°44'0 0.0
2018-Feb-19 09:30N 29°25' W 094°44'0 0.0
2018-Feb-19 09:00N 29°25' W 094°44'0 0.0
2018-Feb-19 08:30N 29°25' W 094°44'0 0.0
2018-Feb-19 08:00N 29°25' W 094°44'0 0.0
2018-Feb-19 07:30N 29°25' W 094°44'0 0.0
2018-Feb-19 06:59N 29°25' W 094°44'0 0.0
2018-Feb-19 06:30N 29°25' W 094°44'0 0.0
2018-Feb-19 06:00N 29°25' W 094°44'0 0.0
2018-Feb-19 05:30N 29°25' W 094°44'0 0.0
2018-Feb-19 05:00N 29°25' W 094°44'0 0.0
2018-Feb-19 04:30N 29°25' W 094°44'0 0.0
2018-Feb-19 03:39N 29°25' W 094°44'0 0.0
2018-Feb-19 03:15N 29°25' W 094°44'0 0.0
2018-Feb-18 19:41N 29°25' W 094°44'0 0.0
2018-Feb-18 19:07N 29°25' W 094°44'0 0.0
2018-Feb-18 18:43N 29°25' W 094°44'0 0.0
2018-Feb-18 18:30N 29°25' W 094°44'0 0.0
2018-Feb-18 17:55N 29°25' W 094°44'0 0.0
2018-Feb-18 16:55N 29°25' W 094°44'0 0.0
2018-Feb-18 16:30N 29°25' W 094°44'0 0.0
2018-Feb-18 16:00N 29°25' W 094°44'0 0.0
2018-Feb-18 15:30N 29°25' W 094°44'0 0.0
2018-Feb-18 14:57N 29°25' W 094°44'0 0.0
2018-Feb-18 14:30N 29°25' W 094°44'0 0.0
2018-Feb-18 13:59N 29°25' W 094°44'0 0.0
2018-Feb-18 07:48N 29°25' W 094°44'0 0.0
2018-Feb-18 07:00N 29°25' W 094°44'0 0.0
2018-Feb-18 01:31N 29°25' W 094°44'0 0.0
2018-Feb-18 01:30N 29°25' W 094°44'0 0.0
2018-Feb-18 00:01N 29°25' W 094°44'0 0.4
2018-Feb-17 23:53N 29°25' W 094°44'0 0.6
2018-Feb-17 23:30N 29°25' W 094°44'2 3.4
2018-Feb-17 23:00N 29°26' W 094°42'2 2.9
2018-Feb-17 22:16N 29°28' W 094°40'0 0.0
2018-Feb-17 21:40N 29°28' W 094°40'0 0.0
2018-Feb-17 21:27N 29°28' W 094°40'1 2.2
2018-Feb-17 21:00N 29°28' W 094°39'9 3.2
2018-Feb-17 18:15N 29°31' W 094°30'2 4.0
2018-Feb-17 17:52N 29°32' W 094°29'0 0.4
2018-Feb-17 17:30N 29°33' W 094°28'0 0.0
2018-Feb-17 16:55N 29°33' W 094°28'0 0.0
2018-Feb-17 16:29N 29°33' W 094°28'0 0.1
2018-Feb-17 15:52N 29°33' W 094°28'0 0.1
2018-Feb-17 15:27N 29°33' W 094°28'0 0.1
2018-Feb-17 14:59N 29°33' W 094°28'0 0.0
2018-Feb-17 14:26N 29°33' W 094°28'0 0.0
2018-Feb-17 14:00N 29°33' W 094°28'0 0.0
2018-Feb-17 13:23N 29°33' W 094°28'0 0.0
2018-Feb-17 13:00N 29°33' W 094°28'0 0.0
2018-Feb-17 12:27N 29°33' W 094°28'0 0.0
2018-Feb-17 11:58N 29°33' W 094°28'0 0.0
2018-Feb-17 11:30N 29°33' W 094°28'0 0.0
2018-Feb-17 10:59N 29°33' W 094°28'0 0.0
2018-Feb-17 10:20N 29°33' W 094°28'0 0.0
2018-Feb-17 10:01N 29°33' W 094°28'0 0.0
2018-Feb-17 09:30N 29°33' W 094°28'0 0.0
2018-Feb-17 09:00N 29°33' W 094°28'0 0.0
2018-Feb-17 08:30N 29°33' W 094°28'0 0.0
2018-Feb-17 08:00N 29°33' W 094°28'0 0.0
2018-Feb-17 07:29N 29°33' W 094°28'0 0.0
2018-Feb-17 07:00N 29°33' W 094°28'0 0.0
2018-Feb-17 06:31N 29°33' W 094°28'0 0.0
2018-Feb-17 05:59N 29°33' W 094°28'0 0.0
2018-Feb-17 05:29N 29°33' W 094°28'0 0.0
2018-Feb-17 04:59N 29°33' W 094°28'0 0.0
2018-Feb-17 04:26N 29°33' W 094°28'0 0.0
2018-Feb-17 04:00N 29°33' W 094°28'0 0.0
2018-Feb-17 03:27N 29°33' W 094°28'0 0.0
2018-Feb-17 02:58N 29°33' W 094°28'0 0.0
2018-Feb-17 02:30N 29°33' W 094°28'0 0.0
2018-Feb-17 01:59N 29°33' W 094°28'0 0.0
2018-Feb-17 01:30N 29°33' W 094°28'0 0.0
2018-Feb-17 00:59N 29°33' W 094°28'0 0.0
2018-Feb-17 00:30N 29°33' W 094°28'0 0.1
2018-Feb-17 00:00N 29°33' W 094°28'0 0.7
2018-Feb-16 23:30N 29°33' W 094°28'2 4.1
2018-Feb-16 23:00N 29°34' W 094°26'0 0.6
2018-Feb-16 22:30N 29°34' W 094°26'0 0.4
2018-Feb-16 22:00N 29°34' W 094°25'0 0.9
2018-Feb-16 21:30N 29°34' W 094°25'2 3.6
2018-Feb-16 21:00N 29°36' W 094°24'2 4.8
2018-Feb-16 20:30N 29°37' W 094°21'3 5.3
2018-Feb-16 19:59N 29°38' W 094°18'3 5.5
2018-Feb-16 19:29N 29°39' W 094°16'3 5.5
2018-Feb-16 19:00N 29°40' W 094°13'3 5.3
2018-Feb-16 18:30N 29°41' W 094°10'3 5.2
2018-Feb-16 18:00N 29°43' W 094°08'3 5.4
2018-Feb-16 17:30N 29°44' W 094°05'3 5.3
2018-Feb-16 17:00N 29°46' W 094°03'3 5.1
2018-Feb-16 16:30N 29°48' W 094°01'2 4.5
2018-Feb-16 16:00N 29°49' W 093°59'0 0.4
2018-Feb-16 15:30N 29°49' W 093°58'0 0.0
2018-Feb-16 15:00N 29°49' W 093°58'0 0.3
2018-Feb-16 14:30N 29°49' W 093°59'1 1.7
2018-Feb-16 14:01N 29°50' W 093°58'0 0.9
2018-Feb-16 13:30N 29°50' W 093°57'0 0.0
2018-Feb-16 13:00N 29°50' W 093°57'0 0.0
2018-Feb-16 12:31N 29°50' W 093°57'0 0.0
2018-Feb-16 12:00N 29°50' W 093°57'0 0.0
2018-Feb-16 11:30N 29°50' W 093°57'0 0.0
2018-Feb-16 11:00N 29°50' W 093°57'0 0.0
2018-Feb-16 10:31N 29°50' W 093°57'0 0.0
2018-Feb-16 10:00N 29°50' W 093°57'0 0.0
2018-Feb-16 09:30N 29°50' W 093°57'0 0.0
2018-Feb-16 09:00N 29°50' W 093°57'0 0.0
2018-Feb-16 08:30N 29°50' W 093°57'0 0.0
2018-Feb-16 08:00N 29°50' W 093°57'0 0.0
2018-Feb-16 07:31N 29°50' W 093°57'0 0.0
2018-Feb-16 07:00N 29°50' W 093°57'0 0.0
2018-Feb-16 06:30N 29°50' W 093°57'0 0.0
2018-Feb-16 06:01N 29°50' W 093°57'0 0.0
2018-Feb-16 05:30N 29°50' W 093°57'0 0.0
2018-Feb-16 05:00N 29°50' W 093°57'0 0.0
2018-Feb-16 04:30N 29°50' W 093°57'0 0.0
2018-Feb-16 04:00N 29°50' W 093°57'0 0.0
2018-Feb-16 03:30N 29°50' W 093°57'0 0.0
2018-Feb-16 03:00N 29°50' W 093°57'0 0.0
2018-Feb-16 02:30N 29°50' W 093°57'0 0.0
2018-Feb-16 02:00N 29°50' W 093°57'0 0.0
2018-Feb-16 01:30N 29°50' W 093°57'0 0.0
2018-Feb-16 01:00N 29°50' W 093°57'0 0.0
2018-Feb-16 00:30N 29°50' W 093°57'0 0.0
2018-Feb-16 00:00N 29°50' W 093°57'0 0.0
2018-Feb-15 23:30N 29°50' W 093°57'0 0.0
2018-Feb-15 23:00N 29°50' W 093°57'0 0.0
2018-Feb-15 22:30N 29°50' W 093°57'0 0.0
2018-Feb-15 22:00N 29°50' W 093°57'0 0.0
2018-Feb-15 21:30N 29°50' W 093°57'0 0.0
2018-Feb-15 21:00N 29°50' W 093°57'0 0.0
2018-Feb-15 20:30N 29°50' W 093°57'0 0.0
2018-Feb-15 20:01N 29°50' W 093°57'0 0.0
2018-Feb-15 19:30N 29°50' W 093°57'0 0.0
2018-Feb-15 19:00N 29°50' W 093°57'0 0.0
2018-Feb-15 18:30N 29°50' W 093°57'0 0.0
2018-Feb-15 18:00N 29°50' W 093°57'0 0.0
2018-Feb-15 17:30N 29°50' W 093°57'0 0.1
2018-Feb-15 17:00N 29°50' W 093°57'2 3.7
2018-Feb-15 16:31N 29°49' W 093°59'1 1.2
2018-Feb-15 16:00N 29°50' W 093°59'0 0.1
2018-Feb-15 15:30N 29°49' W 093°59'0 0.0
2018-Feb-15 15:00N 29°49' W 093°59'0 0.0
2018-Feb-15 14:30N 29°49' W 093°59'0 0.0
2018-Feb-15 14:00N 29°49' W 093°59'0 0.0
2018-Feb-15 13:30N 29°49' W 093°59'0 0.0
2018-Feb-15 13:00N 29°49' W 093°59'0 0.0
2018-Feb-15 12:30N 29°49' W 093°59'0 0.0
2018-Feb-15 12:00N 29°49' W 093°59'0 0.0
2018-Feb-15 11:30N 29°49' W 093°59'0 0.0
2018-Feb-15 11:00N 29°49' W 093°59'0 0.0
2018-Feb-15 10:30N 29°49' W 093°59'0 0.0
2018-Feb-15 10:00N 29°49' W 093°59'0 0.0
2018-Feb-15 09:30N 29°49' W 093°59'0 0.0
2018-Feb-15 09:00N 29°49' W 093°59'0 0.0
2018-Feb-15 08:30N 29°49' W 093°59'0 0.0
2018-Feb-15 08:00N 29°49' W 093°59'0 0.0
2018-Feb-15 07:30N 29°49' W 093°59'0 0.0
2018-Feb-15 07:00N 29°49' W 093°59'0 0.0
2018-Feb-15 06:31N 29°49' W 093°59'0 0.0
2018-Feb-15 06:00N 29°49' W 093°59'0 0.0
2018-Feb-15 05:31N 29°49' W 093°59'0 0.0
2018-Feb-15 05:00N 29°49' W 093°59'0 0.0
2018-Feb-15 04:30N 29°49' W 093°59'0 0.0
2018-Feb-15 04:00N 29°49' W 093°59'0 0.0
2018-Feb-15 03:30N 29°49' W 093°59'0 0.0
2018-Feb-15 03:01N 29°49' W 093°59'0 0.0
2018-Feb-15 02:30N 29°49' W 093°59'0 0.0
2018-Feb-15 02:00N 29°49' W 093°59'0 0.0
2018-Feb-15 01:30N 29°49' W 093°59'0 0.0
2018-Feb-15 01:00N 29°49' W 093°59'0 0.0
2018-Feb-15 00:30N 29°49' W 093°59'0 0.0
2018-Feb-15 00:00N 29°49' W 093°59'0 0.0
2018-Feb-14 23:30N 29°49' W 093°59'0 0.0
2018-Feb-14 23:01N 29°49' W 093°59'0 0.0
2018-Feb-14 22:30N 29°49' W 093°59'0 0.0
2018-Feb-14 22:00N 29°49' W 093°59'0 0.0
2018-Feb-14 21:30N 29°49' W 093°59'0 0.0
2018-Feb-14 21:01N 29°49' W 093°59'0 0.0
2018-Feb-14 20:31N 29°49' W 093°59'0 0.0
2018-Feb-14 20:00N 29°49' W 093°59'0 0.0
2018-Feb-14 19:30N 29°49' W 093°59'0 0.0
2018-Feb-14 19:00N 29°49' W 093°59'0 0.0
2018-Feb-14 18:30N 29°49' W 093°59'0 0.0
2018-Feb-14 18:00N 29°49' W 093°59'0 0.0
2018-Feb-14 17:30N 29°49' W 093°59'0 0.0
2018-Feb-14 17:00N 29°49' W 093°59'0 0.0
2018-Feb-14 16:30N 29°49' W 093°59'0 0.0
2018-Feb-14 16:00N 29°49' W 093°59'0 0.0
2018-Feb-14 15:30N 29°49' W 093°59'0 0.0
2018-Feb-14 15:00N 29°49' W 093°59'0 0.0
2018-Feb-14 14:30N 29°49' W 093°59'0 0.0
2018-Feb-14 14:00N 29°49' W 093°59'0 0.0
2018-Feb-14 13:30N 29°49' W 093°59'0 0.0
2018-Feb-14 13:00N 29°49' W 093°59'0 0.0
2018-Feb-14 12:31N 29°49' W 093°59'0 0.0
2018-Feb-14 12:00N 29°49' W 093°59'0 0.0
2018-Feb-14 11:30N 29°49' W 093°59'0 0.0
2018-Feb-14 11:01N 29°49' W 093°59'0 0.0
2018-Feb-14 10:30N 29°49' W 093°59'0 0.0
2018-Feb-14 10:00N 29°49' W 093°59'0 0.0
2018-Feb-14 09:30N 29°49' W 093°59'0 0.0
2018-Feb-14 09:00N 29°49' W 093°59'0 0.0
2018-Feb-14 08:31N 29°49' W 093°59'0 0.0
2018-Feb-14 08:00N 29°49' W 093°59'0 0.0
2018-Feb-14 07:30N 29°49' W 093°59'0 0.0
2018-Feb-14 07:00N 29°49' W 093°59'0 0.0
2018-Feb-14 06:30N 29°49' W 093°59'0 0.0
2018-Feb-14 06:00N 29°49' W 093°59'0 0.0
2018-Feb-14 05:30N 29°49' W 093°59'0 0.0
2018-Feb-14 05:00N 29°49' W 093°59'0 0.0
2018-Feb-14 04:30N 29°49' W 093°59'0 0.0
2018-Feb-14 04:00N 29°49' W 093°59'0 0.0
2018-Feb-14 03:30N 29°49' W 093°59'0 0.0
2018-Feb-14 03:00N 29°49' W 093°59'0 0.0
2018-Feb-14 02:30N 29°49' W 093°59'0 0.0
2018-Feb-14 02:00N 29°49' W 093°59'0 0.0
2018-Feb-14 01:30N 29°49' W 093°59'0 0.0
2018-Feb-14 01:00N 29°49' W 093°59'0 0.0
2018-Feb-14 00:30N 29°49' W 093°59'0 0.0
2018-Feb-14 00:00N 29°49' W 093°59'0 0.0
2018-Feb-13 23:30N 29°49' W 093°59'0 0.0
2018-Feb-13 23:00N 29°49' W 093°59'0 0.0
2018-Feb-13 22:30N 29°49' W 093°59'0 0.0
2018-Feb-13 22:01N 29°49' W 093°59'0 0.0
2018-Feb-13 21:30N 29°49' W 093°59'0 0.0
2018-Feb-13 21:00N 29°49' W 093°59'0 0.0
2018-Feb-13 20:31N 29°49' W 093°59'0 0.0
2018-Feb-13 20:00N 29°49' W 093°59'0 0.0
2018-Feb-13 19:30N 29°49' W 093°59'0 0.0
2018-Feb-13 19:00N 29°49' W 093°59'0 0.0
2018-Feb-13 18:30N 29°49' W 093°59'0 0.0
2018-Feb-13 18:00N 29°49' W 093°59'0 0.0
2018-Feb-13 17:26N 29°49' W 093°59'0 0.0
2018-Feb-13 17:01N 29°49' W 093°59'0 0.0
2018-Feb-13 16:30N 29°49' W 093°59'0 0.0
2018-Feb-13 15:59N 29°49' W 093°59'0 0.0
2018-Feb-13 15:30N 29°49' W 093°59'1 2.1
2018-Feb-13 15:00N 29°49' W 093°58'1 1.4
2018-Feb-13 14:30N 29°50' W 093°58'0 0.5
2018-Feb-13 14:00N 29°50' W 093°58'2 3.0
2018-Feb-13 13:30N 29°49' W 093°59'0 0.0
2018-Feb-13 13:01N 29°49' W 093°59'0 0.0
2018-Feb-13 12:30N 29°49' W 093°59'0 0.0
2018-Feb-13 12:00N 29°49' W 093°59'0 0.0
2018-Feb-13 11:29N 29°49' W 093°59'0 0.0
2018-Feb-13 11:00N 29°49' W 093°59'0 0.0
2018-Feb-13 10:30N 29°49' W 093°59'0 0.0
2018-Feb-13 10:00N 29°49' W 093°59'0 0.0
2018-Feb-13 09:30N 29°49' W 093°59'0 0.0
2018-Feb-13 09:00N 29°49' W 093°59'0 0.0
2018-Feb-13 08:30N 29°49' W 093°59'0 0.0
2018-Feb-13 08:00N 29°49' W 093°59'0 0.0
2018-Feb-13 07:30N 29°49' W 093°59'0 0.0
2018-Feb-13 07:00N 29°49' W 093°59'0 0.0
2018-Feb-13 06:30N 29°49' W 093°59'0 0.0
2018-Feb-13 06:00N 29°49' W 093°59'0 0.0
2018-Feb-13 05:30N 29°49' W 093°59'0 0.0
2018-Feb-13 05:01N 29°49' W 093°59'0 0.0
2018-Feb-13 04:30N 29°49' W 093°59'0 0.0
2018-Feb-13 04:00N 29°49' W 093°59'0 0.0
2018-Feb-13 03:30N 29°49' W 093°59'0 0.0
2018-Feb-13 03:00N 29°49' W 093°59'0 0.0
2018-Feb-13 02:30N 29°49' W 093°59'0 0.0
2018-Feb-13 02:01N 29°49' W 093°59'0 0.0
2018-Feb-13 01:30N 29°49' W 093°59'0 0.0
2018-Feb-13 00:59N 29°49' W 093°59'0 0.0
2018-Feb-13 00:29N 29°49' W 093°59'0 0.0
2018-Feb-13 00:00N 29°49' W 093°59'0 0.0
2018-Feb-12 23:30N 29°49' W 093°59'1 3.0
2018-Feb-12 23:00N 29°50' W 093°58'0 0.0
2018-Feb-12 22:30N 29°50' W 093°58'0 0.0
2018-Feb-12 22:00N 29°50' W 093°58'0 0.0
2018-Feb-12 21:30N 29°50' W 093°58'0 0.0
2018-Feb-12 21:00N 29°50' W 093°58'2 3.0
2018-Feb-12 20:30N 29°49' W 093°59'0 0.3
2018-Feb-12 20:00N 29°49' W 093°59'0 0.0
2018-Feb-12 19:30N 29°49' W 093°59'0 0.0
2018-Feb-12 19:01N 29°49' W 093°59'0 0.0
2018-Feb-12 18:30N 29°49' W 093°59'0 0.0
2018-Feb-12 18:00N 29°49' W 093°59'0 0.0
2018-Feb-12 17:30N 29°49' W 093°59'0 0.0
2018-Feb-12 17:01N 29°49' W 093°59'0 0.0
2018-Feb-12 16:30N 29°49' W 093°59'0 0.0
2018-Feb-12 16:01N 29°49' W 093°59'0 0.0
2018-Feb-12 15:30N 29°49' W 093°59'0 0.0
2018-Feb-12 14:59N 29°49' W 093°59'0 0.0
2018-Feb-12 14:30N 29°49' W 093°59'0 0.0
2018-Feb-12 14:01N 29°49' W 093°59'0 0.0
2018-Feb-12 13:30N 29°49' W 093°59'0 0.0
2018-Feb-12 13:00N 29°49' W 093°59'0 0.0
2018-Feb-12 12:30N 29°49' W 093°59'0 0.0
2018-Feb-12 12:00N 29°49' W 093°59'0 0.0
2018-Feb-12 11:30N 29°49' W 093°59'0 0.0
2018-Feb-12 11:00N 29°49' W 093°59'0 0.0
2018-Feb-12 10:30N 29°49' W 093°59'0 0.0
2018-Feb-12 10:00N 29°49' W 093°59'0 0.0
2018-Feb-12 09:30N 29°49' W 093°59'0 0.0
2018-Feb-12 09:00N 29°49' W 093°59'0 0.0
2018-Feb-12 08:30N 29°49' W 093°59'0 0.0
2018-Feb-12 07:59N 29°49' W 093°59'0 0.0
2018-Feb-12 07:30N 29°49' W 093°59'0 0.0
2018-Feb-12 07:00N 29°49' W 093°59'0 0.0
2018-Feb-12 06:31N 29°49' W 093°59'0 0.0
2018-Feb-12 06:00N 29°49' W 093°59'0 0.0
2018-Feb-12 05:30N 29°49' W 093°59'0 0.0
2018-Feb-12 04:59N 29°49' W 093°59'0 0.0
2018-Feb-12 04:30N 29°49' W 093°59'0 0.0
2018-Feb-12 04:00N 29°49' W 093°59'0 0.0
2018-Feb-12 03:30N 29°49' W 093°59'0 0.0
2018-Feb-12 03:00N 29°49' W 093°59'0 0.0
2018-Feb-12 02:30N 29°49' W 093°59'0 0.0
2018-Feb-12 02:00N 29°49' W 093°59'0 0.0
2018-Feb-12 01:30N 29°49' W 093°59'0 0.0
2018-Feb-12 01:00N 29°49' W 093°59'0 0.0
2018-Feb-12 00:30N 29°49' W 093°59'0 0.0
2018-Feb-12 00:00N 29°49' W 093°59'0 0.0
2018-Feb-11 23:30N 29°49' W 093°59'0 0.0
2018-Feb-11 23:00N 29°49' W 093°59'0 0.0
2018-Feb-11 22:30N 29°49' W 093°59'0 0.0
2018-Feb-11 22:01N 29°49' W 093°59'0 0.0
2018-Feb-11 21:30N 29°49' W 093°59'0 0.0
2018-Feb-11 21:00N 29°49' W 093°59'0 0.0
2018-Feb-11 20:26N 29°49' W 093°59'0 0.0
2018-Feb-11 20:00N 29°49' W 093°59'0 0.0
2018-Feb-11 19:29N 29°49' W 093°59'0 0.0
2018-Feb-11 19:00N 29°49' W 093°59'0 0.0
2018-Feb-11 18:30N 29°49' W 093°59'0 0.0
2018-Feb-11 18:01N 29°49' W 093°59'0 0.0
2018-Feb-11 17:31N 29°49' W 093°59'0 0.0
2018-Feb-11 17:00N 29°49' W 093°59'0 0.0
2018-Feb-11 16:31N 29°49' W 093°59'0 0.0
2018-Feb-11 16:00N 29°49' W 093°59'0 0.0
2018-Feb-11 15:31N 29°49' W 093°59'0 0.0
2018-Feb-11 15:00N 29°49' W 093°59'0 0.0
2018-Feb-11 14:31N 29°49' W 093°59'0 0.0
2018-Feb-11 14:01N 29°49' W 093°59'0 0.0
2018-Feb-11 13:30N 29°49' W 093°59'0 0.0
2018-Feb-11 13:00N 29°49' W 093°59'0 0.0
2018-Feb-11 12:30N 29°49' W 093°59'0 0.0
2018-Feb-11 12:00N 29°49' W 093°59'0 0.0
2018-Feb-11 11:30N 29°49' W 093°59'0 0.0
2018-Feb-11 11:00N 29°49' W 093°59'0 0.0
2018-Feb-11 10:31N 29°49' W 093°59'0 0.0
2018-Feb-11 10:00N 29°49' W 093°59'0 0.0
2018-Feb-11 09:30N 29°49' W 093°59'0 0.0
2018-Feb-11 09:00N 29°49' W 093°59'0 0.0
2018-Feb-11 08:30N 29°49' W 093°59'0 0.0
2018-Feb-11 08:00N 29°49' W 093°59'0 0.0
2018-Feb-11 07:30N 29°49' W 093°59'0 0.0
2018-Feb-11 07:00N 29°49' W 093°59'0 0.0
2018-Feb-11 06:30N 29°49' W 093°59'0 0.0
2018-Feb-11 06:00N 29°49' W 093°59'0 0.0
2018-Feb-11 05:29N 29°49' W 093°59'0 0.0
2018-Feb-11 04:59N 29°49' W 093°59'0 0.0
2018-Feb-11 04:30N 29°49' W 093°59'0 0.0
2018-Feb-11 04:00N 29°49' W 093°59'0 0.0
2018-Feb-11 03:30N 29°49' W 093°59'0 0.0
2018-Feb-11 03:00N 29°49' W 093°59'0 0.0
2018-Feb-11 02:31N 29°49' W 093°59'0 0.0
2018-Feb-11 02:00N 29°49' W 093°59'0 0.0
2018-Feb-11 01:30N 29°49' W 093°59'0 0.0
2018-Feb-11 01:00N 29°49' W 093°59'0 0.0
2018-Feb-11 00:31N 29°49' W 093°59'0 0.0
2018-Feb-11 00:00N 29°49' W 093°59'0 0.0
2018-Feb-10 23:30N 29°49' W 093°59'0 0.0
2018-Feb-10 23:00N 29°49' W 093°59'0 0.3
2018-Feb-10 22:31N 29°49' W 093°59'2 4.6
2018-Feb-10 22:01N 29°47' W 094°01'3 6.1
2018-Feb-10 21:30N 29°45' W 094°04'3 6.2
2018-Feb-10 21:00N 29°44' W 094°06'3 6.2
2018-Feb-10 20:30N 29°42' W 094°09'3 5.0
2018-Feb-10 20:01N 29°41' W 094°12'2 3.1
2018-Feb-10 19:30N 29°40' W 094°14'3 5.9
2018-Feb-10 19:01N 29°39' W 094°17'3 5.7
2018-Feb-10 18:29N 29°37' W 094°20'3 5.7
2018-Feb-10 17:52N 29°36' W 094°23'2 4.5
2018-Feb-10 17:30N 29°35' W 094°25'2 4.5
2018-Feb-10 16:58N 29°34' W 094°27'6 2.1
2018-Feb-10 14:13N 29°30' W 094°32'0 0.0
2018-Feb-10 13:54N 29°30' W 094°32'  

Dump ship's entire track history